Nearby METAR* Reports

*"METAR [Météorologique Aviation Régulière] is the international standard code format for hourly surface weather observations which is analogous to the SA coding currently used in the US. The acronym roughly translates from French as Aviation Routine Weather Report." (Source: http://gosic.org/wdcmet/us-metar-faq-taf)

 

KTEB - Teterboro, New Jersey, USA
Distance from station: ENE 2mi, 3km
Updated: 09/22/2017 11:51am
Few Clouds
Few Clouds
 Wind from N
Wind: N 13 mph , 20 km/h, Gust: 20 mph , 31 km/h
Temperature: 75°F , 24°C
Dew Point: 52°F , 11°C
Humidity: 44%
Barometer: 29.99 inHg , 1015.6 hPa
Clouds: Few Clouds
Visibility: 10 miles , 16 km
Cloud details: Few Clouds 8500 ft
2017/09/22 15:51 KTEB 221551Z 01011G17KT 10SM FEW085 24/11 A2999 RMK AO2 SLP157 T02390111
KNYC - Nyc/Central Park, New York, USA
Distance from station: SE 8mi, 13km
Updated: 09/22/2017 11:51am
Clear
Clear
 Wind from varies
Wind: varies 6 mph , 9 km/h
Temperature: 79°F , 26°C
Dew Point: 54°F , 12°C
Humidity: 42%
Barometer: 30.03 inHg , 1016.9 hPa
Clouds: Clear
Visibility: 10 miles , 16 km
2017/09/22 15:51 KNYC 221551Z AUTO VRB05KT 10SM CLR 26/12 A3003 RMK AO2 SLP158 T02560117
KCDW - Caldwell, New Jersey, USA
Distance from station: W 11mi, 17km
Updated: 09/22/2017 11:53am
Clear
Clear
 Wind from NNE
Wind: NNE 8 mph , 13 km/h, Gust: 17 mph , 28 km/h
Temperature: 77°F , 25°C
Dew Point: 54°F , 12°C
Humidity: 44%
Barometer: 30.03 inHg , 1016.9 hPa
Clouds: Clear
Visibility: 10 miles , 16 km
2017/09/22 15:53 KCDW 221553Z 02007G15KT 290V050 10SM CLR 25/12 A3003 RMK AO2 SLP172 T02500122
 
KLGA - Nyc/La Guardia, New York, USA
Distance from station: ESE 12mi, 19km
Updated: 09/22/2017 11:51am
Partly cloudy
Partly cloudy
 Wind from N
Wind: N 16 mph , 26 km/h, Gust: 24 mph , 39 km/h
Temperature: 75°F , 24°C
Dew Point: 54°F , 12°C
Humidity: 47%
Barometer: 29.99 inHg , 1015.6 hPa
Clouds: Partly cloudy
Visibility: 10 miles , 16 km
Cloud details: Few Clouds 8000 ft
Few Clouds 18000 ft
Partly cloudy 25000 ft
2017/09/22 15:51 KLGA 221551Z 35014G21KT 10SM FEW080 FEW180 SCT250 24/12 A2999 RMK AO2 SLP154 T02390122
KEWR - Newark, New Jersey, USA
Distance from station: SSW 13mi, 20km
Updated: 09/22/2017 11:51am
Mostly cloudy
Mostly cloudy
 Wind from N
Wind: N 17 mph , 28 km/h
Temperature: 81°F , 27°C
Dew Point: 52°F , 11°C
Humidity: 37%
Barometer: 30.00 inHg , 1015.9 hPa
Clouds: Mostly cloudy
Visibility: 10 miles , 16 km
Cloud details: Few Clouds 9000 ft
Partly cloudy 18000 ft
Mostly cloudy 25000 ft
2017/09/22 15:51 KEWR 221551Z 36015KT 10SM FEW090 SCT180 BKN250 27/11 A3000 RMK AO2 SLP159 T02670106
KMMU - Morristown Muni, New Jersey, USA
Distance from station: WSW 18mi, 29km
Updated: 09/22/2017 12:50pm
Partly cloudy
Partly cloudy
 Wind from NNE
Wind: NNE 15 mph , 24 km/h, Gust: 24 mph , 39 km/h
Temperature: 79°F , 26°C
Dew Point: 54°F , 12°C
Humidity: 42%
Barometer: 30.01 inHg , 1016.3 hPa
Clouds: Partly cloudy
Visibility: 10 miles , 16 km
Cloud details: Few Clouds 8500 ft
Partly cloudy 25000 ft
2017/09/22 16:50 KMMU 221650Z 03013G21KT 10SM FEW085 SCT250 26/12 A3001
 
KLDJ - Linden, New Jersey, USA
Distance from station: SSW 19mi, 30km
Updated: 09/22/2017 11:55am
Mostly cloudy
Mostly cloudy
 Wind from N
Wind: N 12 mph , 19 km/h
Temperature: 79°F , 26°C
Dew Point: 50°F , 10°C
Humidity: 37%
Barometer: 30.01 inHg , 1016.3 hPa
Clouds: Mostly cloudy
Visibility: 10 miles , 16 km
Cloud details: Mostly cloudy 8500 ft
2017/09/22 15:55 KLDJ 221555Z AUTO 36010KT 10SM BKN085 26/10 A3001 RMK AO2 T02560095
KJFK - Nyc/Jfk Arpt, New York, USA
Distance from station: SE 23mi, 36km
Updated: 09/22/2017 11:51am
Partly cloudy
Partly cloudy
 Wind from N
Wind: N 17 mph , 28 km/h, Gust: 29 mph , 46 km/h
Temperature: 79°F , 26°C
Dew Point: 54°F , 12°C
Humidity: 42%
Barometer: 29.99 inHg , 1015.6 hPa
Clouds: Partly cloudy
Visibility: 10 miles , 16 km
Cloud details: Few Clouds 8500 ft
Few Clouds 17000 ft
Partly cloudy 27000 ft
2017/09/22 15:51 KJFK 221551Z 01015G25KT 10SM FEW085 FEW170 SCT270 26/12 A2999 RMK AO2 PK WND 01027/1515 SLP154 ACSL N-NE AND W T02560117
KHPN - White Plains, New York, USA
Distance from station: NE 25mi, 40km
Updated: 09/22/2017 11:56am
Few Clouds
Few Clouds
 Wind from N
Wind: N 15 mph , 24 km/h, Gust: 24 mph , 39 km/h
Temperature: 75°F , 24°C
Dew Point: 52°F , 11°C
Humidity: 44%
Barometer: 30.00 inHg , 1015.9 hPa
Clouds: Few Clouds
Visibility: 10 miles , 16 km
Cloud details: Few Clouds 10000 ft
2017/09/22 15:56 KHPN 221556Z 35013G21KT 10SM FEW100 24/11 A3000 RMK AO2 SLP152 T02440111
 
KSMQ - Somerville, New Jersey, USA
Distance from station: WSW 35mi, 56km
Updated: 09/06/2017 9:01am
NOT Current
Overcast
Overcast
 Wind from N
Wind: N 9 mph , 15 km/h, Gust: 17 mph , 28 km/h
Temperature: 64°F , 18°C
Dew Point: 61°F , 16°C
Humidity: 88%
Barometer: 29.87 inHg , 1011.5 hPa
Clouds: Overcast
Visibility: 7 miles , 11 km
Cloud details: Partly cloudy 1200 ft
Overcast 2500 ft
2017/09/06 13:01 KSMQ 061301Z AUTO 35008G15KT 7SM SCT012 OVC025 18/16 A2987 RMK AO2 PRESRR T01780161
K12N - Andover, New Jersey, USA
Distance from station: WNW 36mi, 57km
Updated: 09/22/2017 11:54am

 Wind from N
Wind: N 8 mph , 13 km/h
Temperature: 75°F , 24°C
Dew Point: 52°F , 11°C
Humidity: 44%
Barometer: 30.06 inHg , 1017.9 hPa
2017/09/22 15:54 K12N 221554Z AUTO 01007KT 330V070 24/11 A3006 RMK AO1 SLP171 T02440111
KFRG - Farmingdale, New York, USA
Distance from station: ESE 36mi, 58km
Updated: 09/22/2017 11:53am
Clear
Clear
 Wind from N
Wind: N 17 mph , 28 km/h, Gust: 25 mph , 41 km/h
Temperature: 75°F , 24°C
Dew Point: 54°F , 12°C
Humidity: 47%
Barometer: 29.97 inHg , 1014.9 hPa
Clouds: Clear
Visibility: 10 miles , 16 km
2017/09/22 15:53 KFRG 221553Z 01015G22KT 10SM CLR 24/12 A2997 RMK AO2 SLP147 T02440122
 
KFWN - Sussex, New Jersey, USA
Distance from station: NW 37mi, 60km
Updated: 09/22/2017 11:53am
Clear
Clear
 Wind from NE
Wind: NE 10 mph , 17 km/h
Temperature: 77°F , 25°C
Dew Point: 50°F , 10°C
Humidity: 39%
Barometer: 30.05 inHg , 1017.6 hPa
Clouds: Clear
Visibility: 10 miles , 16 km
2017/09/22 15:53 KFWN 221553Z AUTO 04009KT 10SM CLR 25/10 A3005 RMK AO2 SLP173 T02500100
KSWF - Newburgh/Stewart, New York, USA
Distance from station: 0 44mi, 72km
Updated: 09/22/2017 12:45pm
Partly cloudy
Partly cloudy
 Wind from NNE
Wind: NNE 16 mph , 26 km/h, Gust: 26 mph , 43 km/h
Temperature: 77°F , 25°C
Dew Point: 50°F , 10°C
Humidity: 39%
Barometer: 30.06 inHg , 1017.9 hPa
Clouds: Partly cloudy
Visibility: 20 miles , 32 km
Cloud details: Partly cloudy 10000 ft
2017/09/22 16:45 KSWF 221645Z 03014G23KT 20SM SCT100 25/10 A3006
KMGJ - Montgomery, New York, USA
Distance from station: NNW 47mi, 75km
Updated: 09/22/2017 11:54am
Clear
Clear
 Wind from NE
Wind: NE 9 mph , 15 km/h
Temperature: 75°F , 24°C
Dew Point: 55°F , 13°C
Humidity: 50%
Barometer: 30.05 inHg , 1017.6 hPa
Clouds: Clear
Visibility: 10 miles , 16 km
2017/09/22 15:54 KMGJ 221554Z AUTO 04008KT 10SM CLR 24/13 A3005 RMK AO2 SLP172 T02390128
 
KDXR - Danbury, Connecticut, USA
Distance from station: NE 47mi, 76km
Updated: 09/22/2017 11:56am
Few Clouds
Few Clouds
 Wind from N
Wind: N 18 mph , 30 km/h, Gust: 23 mph , 37 km/h
Temperature: 75°F , 24°C
Dew Point: 54°F , 12°C
Humidity: 47%
Barometer: 30.02 inHg , 1016.6 hPa
Clouds: Few Clouds
Visibility: 10 miles , 16 km
Cloud details: Few Clouds 6000 ft
2017/09/22 15:56 KDXR 221556Z 01016G20KT 10SM FEW060 24/12 A3002 RMK AO2 T02440117
KBLM - Belmar/Farmdale, New Jersey, USA
Distance from station: S 48mi, 77km
Updated: 09/22/2017 11:56am
Mostly cloudy
Mostly cloudy
 Wind from NW
Wind: NW 17 mph , 28 km/h, Gust: 22 mph , 35 km/h
Temperature: 75°F , 24°C
Dew Point: 52°F , 11°C
Humidity: 44%
Barometer: 30.00 inHg , 1015.9 hPa
Clouds: Mostly cloudy
Visibility: 10 miles , 16 km
Cloud details: Mostly cloudy 8500 ft
2017/09/22 15:56 KBLM 221556Z AUTO 32015G19KT 10SM BKN085 24/11 A3000 RMK AO2 SLP163 T02390111